CheckWX is a tool to help pilots better visualize weather data.  It is not intended as a substitute for an official pre-flight weather briefing.

06:08:27 UTC

CYED METAR
Edmonton (CFB Namao) Heliport
Edmonton, Canada
Current

1 hour ago

CYED 230500Z AUTO 23005KT 9SM CLR 06/03 A2968 RMK SLP064
Observed
Apr-23 @ 05:00 UTC
Wind
  • 230° at 5 KTS
Visibility
9 SM
Flight Rules
VFR
Cloud Levels
  • Clear skies
Temperature
C / 43°F
Dewpoint
C / 37°F
Humidity
81%
Altimeter
29.68" Hg
Pressure
1005.12 hPa
Previous

2 hours ago

CYED 230400Z AUTO 25003KT 9SM CLR 08/04 A2968 RMK SLP063
Observed
Apr-23 @ 04:00 UTC
Wind
  • 250° at 3 KTS
Visibility
9 SM
Flight Rules
VFR
Cloud Levels
  • Clear skies
Temperature
C / 46°F
Dewpoint
C / 39°F
Humidity
76%
Altimeter
29.68" Hg
Pressure
1005.12 hPa
Previous

3 hours ago

CYED 230300Z AUTO 25003KT 9SM CLR 11/04 A2967 RMK SLP061
Observed
Apr-23 @ 03:00 UTC
Wind
  • 250° at 3 KTS
Visibility
9 SM
Flight Rules
VFR
Cloud Levels
  • Clear skies
Temperature
11°C / 52°F
Dewpoint
C / 39°F
Humidity
62%
Altimeter
29.67" Hg
Pressure
1004.72 hPa